Time;durP1;ratioP1;P1;durP2;ratioP2;P2;SDS_P1;SDS_P2;PMS_P1;PMS_P2;Temp;Humidity;BMP_temperature;BMP_pressure;BME280_temperature;BME280_humidity;BME280_pressure;Samples;Min_cycle;Max_cycle;Signal;HPM_P1;HPM_P2
2022/06/13 00:01:38;;;;;;;11.50;6.88;;;;;;;;;;5318391;27;20182;-80
2022/06/13 00:04:10;;;;;;;11.38;6.60;;;;;;;;;;5320305;27;20051;-80
2022/06/13 00:06:41;;;;;;;11.00;6.10;;;;;;;;;;5320854;27;20473;-80
2022/06/13 00:09:12;;;;;;;13.43;6.07;;;;;;;;;;5331432;27;20047;-80
2022/06/13 00:11:43;;;;;;;10.52;6.03;;;;;;;;;;5321310;27;20302;-79
2022/06/13 00:14:14;;;;;;;11.93;5.90;;;;;;;;;;5316858;27;20544;-80
2022/06/13 00:16:45;;;;;;;13.03;6.07;;;;;;;;;;5319158;27;20263;-79
2022/06/13 00:19:17;;;;;;;7.20;5.37;;;;;;;;;;5317496;27;20290;-80
2022/06/13 00:21:48;;;;;;;12.18;6.13;;;;;;;;;;5313756;27;20055;-80
2022/06/13 00:24:19;;;;;;;9.27;5.93;;;;;;;;;;5308893;27;20055;-79
2022/06/13 00:26:50;;;;;;;13.20;6.37;;;;;;;;;;5314951;27;20567;-80
2022/06/13 00:29:21;;;;;;;12.80;6.57;;;;;;;;;;5312338;27;20380;-80
2022/06/13 00:31:52;;;;;;;11.40;6.37;;;;;;;;;;5308929;27;20678;-80
2022/06/13 00:34:24;;;;;;;10.80;5.40;;;;;;;;;;5311918;27;20283;-80
2022/06/13 00:36:55;;;;;;;10.30;5.60;;;;;;;;;;5311645;27;20058;-80
2022/06/13 00:39:26;;;;;;;10.63;5.90;;;;;;;;;;5293333;27;20024;-80
2022/06/13 00:41:57;;;;;;;10.90;5.60;;;;;;;;;;5310598;27;20669;-80
2022/06/13 00:44:31;;;;;;;14.02;6.78;;;;;;;;;;5292474;27;20025;-80
2022/06/13 00:47:02;;;;;;;12.60;6.05;;;;;;;;;;5299735;27;20092;-80
2022/06/13 00:49:38;;;;;;;11.77;5.65;;;;;;;;;;5311908;27;20111;-80
2022/06/13 00:52:12;;;;;;;12.68;6.10;;;;;;;;;;5310853;27;20035;-80
2022/06/13 00:54:45;;;;;;;11.05;5.45;;;;;;;;;;5294384;27;20031;-80
2022/06/13 00:57:18;;;;;;;12.10;5.53;;;;;;;;;;5287894;27;20450;-80
2022/06/13 00:59:52;;;;;;;10.68;5.63;;;;;;;;;;5311868;27;20041;-80
2022/06/13 01:02:23;;;;;;;13.25;6.53;;;;;;;;;;5289979;27;20390;-80
2022/06/13 01:04:55;;;;;;;11.52;5.53;;;;;;;;;;5318080;27;20055;-80
2022/06/13 01:07:27;;;;;;;12.77;5.75;;;;;;;;;;5326377;27;20465;-80
2022/06/13 01:12:49;;;;;;;12.57;5.43;;;;;;;;;;5319242;27;20115;-80
2022/06/13 01:15:38;;;;;;;12.32;5.88;;;;;;;;;;5301812;27;20842;-80
2022/06/13 01:18:28;;;;;;;12.35;6.22;;;;;;;;;;5319651;27;20111;-81
2022/06/13 01:21:02;;;;;;;9.30;5.57;;;;;;;;;;5312393;27;20436;-81
2022/06/13 01:23:42;;;;;;;11.27;5.75;;;;;;;;;;5313254;27;20020;-80
2022/06/13 01:26:16;;;;;;;14.43;6.90;;;;;;;;;;5324210;27;20020;-80
2022/06/13 01:29:00;;;;;;;11.82;6.10;;;;;;;;;;5317852;27;20856;-80
2022/06/13 01:31:40;;;;;;;13.88;6.57;;;;;;;;;;5321031;27;20024;-80
2022/06/13 01:34:20;;;;;;;14.05;6.00;;;;;;;;;;5327384;27;20504;-80
2022/06/13 01:36:54;;;;;;;16.48;7.05;;;;;;;;;;5312133;27;20399;-80
2022/06/13 01:39:44;;;;;;;13.30;6.63;;;;;;;;;;5310905;27;20095;-80
2022/06/13 01:42:18;;;;;;;12.98;6.97;;;;;;;;;;5326343;27;20048;-80
2022/06/13 01:44:49;;;;;;;12.68;6.28;;;;;;;;;;5300243;27;20039;-80
2022/06/13 01:47:27;;;;;;;14.47;7.17;;;;;;;;;;5329324;27;20487;-80
2022/06/13 01:50:14;;;;;;;12.00;5.85;;;;;;;;;;5319554;27;20282;-80
2022/06/13 01:53:00;;;;;;;13.40;5.85;;;;;;;;;;5308115;27;20028;-80
2022/06/13 01:55:44;;;;;;;14.48;6.53;;;;;;;;;;5313749;27;20047;-80
2022/06/13 01:58:19;;;;;;;12.90;6.32;;;;;;;;;;5299628;27;20174;-80
2022/06/13 02:00:54;;;;;;;12.15;5.38;;;;;;;;;;5312817;27;20044;-80
2022/06/13 02:03:28;;;;;;;9.73;5.82;;;;;;;;;;5319334;27;20539;-81
2022/06/13 02:06:26;;;;;;;14.38;6.95;;;;;;;;;;5291875;27;20039;-80
2022/06/13 02:08:59;;;;;;;10.05;5.85;;;;;;;;;;5321237;27;20048;-80
2022/06/13 02:11:32;;;;;;;9.68;5.95;;;;;;;;;;5321324;27;20032;-80
2022/06/13 02:14:09;;;;;;;12.00;5.43;;;;;;;;;;5296494;27;20039;-79
2022/06/13 02:16:46;;;;;;;9.35;5.03;;;;;;;;;;5313317;27;20405;-80
2022/06/13 02:19:20;;;;;;;17.63;7.25;;;;;;;;;;5317467;27;20032;-80
2022/06/13 02:21:58;;;;;;;13.45;6.50;;;;;;;;;;5323708;27;20032;-80
2022/06/13 02:24:40;;;;;;;12.07;5.88;;;;;;;;;;5311220;27;20407;-80
2022/06/13 02:27:12;;;;;;;12.75;6.85;;;;;;;;;;5314431;27;20803;-80
2022/06/13 02:29:52;;;;;;;13.88;6.32;;;;;;;;;;5322046;27;20016;-80
2022/06/13 02:32:32;;;;;;;13.15;6.40;;;;;;;;;;5321633;27;20032;-80
2022/06/13 02:35:05;;;;;;;13.18;5.82;;;;;;;;;;5319505;27;20041;-80
2022/06/13 02:37:37;;;;;;;17.42;7.55;;;;;;;;;;5316969;27;20020;-80
2022/06/13 02:40:11;;;;;;;14.73;7.27;;;;;;;;;;5319487;27;20036;-80
2022/06/13 02:42:46;;;;;;;13.88;7.35;;;;;;;;;;5322320;27;20035;-80
2022/06/13 02:45:26;;;;;;;12.75;6.20;;;;;;;;;;5322217;27;20024;-79
2022/06/13 02:48:11;;;;;;;10.90;6.28;;;;;;;;;;5318710;27;20082;-80
2022/06/13 02:50:47;;;;;;;16.90;7.55;;;;;;;;;;5312554;27;20036;-80
2022/06/13 02:53:22;;;;;;;13.55;6.93;;;;;;;;;;5322326;27;20027;-80
2022/06/13 02:56:06;;;;;;;10.60;6.30;;;;;;;;;;5319674;27;20036;-80
2022/06/13 02:58:47;;;;;;;15.73;6.88;;;;;;;;;;5329007;27;20020;-79
2022/06/13 03:01:26;;;;;;;19.15;8.82;;;;;;;;;;5319138;27;20114;-79
2022/06/13 03:04:11;;;;;;;15.48;7.65;;;;;;;;;;5320555;27;20035;-79
2022/06/13 03:06:55;;;;;;;21.80;8.30;;;;;;;;;;5298985;27;20049;-80
2022/06/13 03:09:31;;;;;;;14.95;6.97;;;;;;;;;;5322745;27;20360;-80
2022/06/13 03:12:07;;;;;;;16.40;8.65;;;;;;;;;;5320343;27;20062;-80
2022/06/13 03:14:51;;;;;;;12.75;6.95;;;;;;;;;;5302270;27;20111;-80
2022/06/13 03:17:28;;;;;;;17.52;7.90;;;;;;;;;;5318716;27;20043;-80
2022/06/13 03:19:59;;;;;;;14.68;7.95;;;;;;;;;;5317996;27;20036;-80
2022/06/13 03:22:48;;;;;;;16.73;7.78;;;;;;;;;;5316823;27;20037;-80
2022/06/13 03:25:19;;;;;;;13.57;8.40;;;;;;;;;;5317778;27;20147;-80
2022/06/13 03:28:10;;;;;;;13.80;7.53;;;;;;;;;;5315893;27;20111;-80
2022/06/13 03:30:43;;;;;;;11.13;7.18;;;;;;;;;;5316804;27;20080;-80
2022/06/13 03:36:26;;;;;;;19.00;8.05;;;;;;;;;;5324438;27;20452;-80
2022/06/13 03:39:00;;;;;;;17.40;8.18;;;;;;;;;;5305508;27;20064;-80
2022/06/13 03:41:34;;;;;;;15.15;6.55;;;;;;;;;;5322765;27;20093;-80
2022/06/13 03:44:10;;;;;;;19.20;8.95;;;;;;;;;;5302358;27;20358;-80
2022/06/13 03:46:49;;;;;;;14.80;7.32;;;;;;;;;;5314187;27;20032;-79
2022/06/13 03:49:23;;;;;;;14.98;8.57;;;;;;;;;;5316128;27;20119;-80
2022/06/13 03:51:55;;;;;;;15.48;8.82;;;;;;;;;;5317218;27;20107;-78
2022/06/13 03:54:36;;;;;;;17.05;8.15;;;;;;;;;;5315999;27;20040;-79
2022/06/13 03:57:13;;;;;;;17.38;7.70;;;;;;;;;;5313919;27;20029;-79
2022/06/13 03:59:50;;;;;;;14.35;8.43;;;;;;;;;;5317561;27;20036;-79
2022/06/13 04:02:25;;;;;;;15.23;8.07;;;;;;;;;;5317700;27;20054;-80
2022/06/13 04:04:56;;;;;;;15.77;9.27;;;;;;;;;;5318039;27;20055;-79
2022/06/13 04:07:29;;;;;;;18.13;9.10;;;;;;;;;;5315358;27;20020;-79
2022/06/13 04:10:04;;;;;;;17.10;8.95;;;;;;;;;;5315881;27;20115;-79
2022/06/13 04:12:51;;;;;;;14.85;8.75;;;;;;;;;;5314084;27;20021;-79
2022/06/13 04:15:25;;;;;;;17.50;8.98;;;;;;;;;;5315435;27;20093;-79
2022/06/13 04:18:04;;;;;;;16.08;7.93;;;;;;;;;;5319605;27;20028;-79
2022/06/13 04:20:42;;;;;;;15.32;9.30;;;;;;;;;;5318616;27;20032;-79
2022/06/13 04:23:13;;;;;;;14.90;8.88;;;;;;;;;;5317722;27;20412;-79
2022/06/13 04:26:07;;;;;;;13.88;8.75;;;;;;;;;;5313321;27;20039;-79
2022/06/13 04:28:44;;;;;;;18.27;8.85;;;;;;;;;;5312341;27;20040;-79
2022/06/13 04:31:18;;;;;;;21.98;10.88;;;;;;;;;;5312942;27;20085;-79
2022/06/13 04:33:52;;;;;;;14.45;8.82;;;;;;;;;;5310446;27;20045;-79
2022/06/13 04:36:23;;;;;;;17.90;9.35;;;;;;;;;;5322360;27;20050;-79
2022/06/13 04:38:57;;;;;;;14.23;8.90;;;;;;;;;;5315817;27;20040;-79
2022/06/13 04:41:30;;;;;;;22.50;10.18;;;;;;;;;;5333054;27;20073;-79
2022/06/13 04:44:03;;;;;;;17.88;10.25;;;;;;;;;;5299447;27;20030;-79
2022/06/13 04:46:35;;;;;;;20.33;9.25;;;;;;;;;;5328250;27;20483;-79
2022/06/13 04:49:13;;;;;;;19.15;9.93;;;;;;;;;;5325809;27;20170;-79
2022/06/13 04:51:45;;;;;;;19.20;10.77;;;;;;;;;;5317407;27;20047;-79
2022/06/13 04:54:36;;;;;;;16.77;8.70;;;;;;;;;;5313285;27;20071;-79
2022/06/13 04:57:11;;;;;;;19.10;11.10;;;;;;;;;;5314623;27;20048;-79
2022/06/13 04:59:42;;;;;;;20.00;9.52;;;;;;;;;;5319262;27;20043;-79
2022/06/13 05:02:31;;;;;;;22.42;10.98;;;;;;;;;;5306554;27;20020;-79
2022/06/13 05:05:03;;;;;;;21.63;10.63;;;;;;;;;;5309382;27;20059;-80
2022/06/13 05:07:35;;;;;;;17.38;11.45;;;;;;;;;;5320265;27;20089;-79
2022/06/13 05:10:11;;;;;;;24.27;10.67;;;;;;;;;;5288640;27;20044;-79
2022/06/13 05:12:44;;;;;;;21.52;11.68;;;;;;;;;;5309667;27;20278;-79
2022/06/13 05:15:18;;;;;;;23.90;11.75;;;;;;;;;;5305389;27;20104;-79
2022/06/13 05:17:49;;;;;;;26.17;12.18;;;;;;;;;;5304827;27;20032;-79
2022/06/13 05:20:32;;;;;;;21.00;11.63;;;;;;;;;;5307728;27;20039;-79
2022/06/13 05:23:21;;;;;;;22.33;11.90;;;;;;;;;;5289797;27;20357;-79
2022/06/13 05:25:57;;;;;;;22.85;11.10;;;;;;;;;;5309004;27;20033;-79
2022/06/13 05:28:30;;;;;;;23.65;11.40;;;;;;;;;;5313439;27;20028;-79
2022/06/13 05:31:06;;;;;;;25.52;13.18;;;;;;;;;;5322200;27;20064;-79
2022/06/13 05:33:40;;;;;;;28.10;13.25;;;;;;;;;;5309601;27;20037;-79
2022/06/13 05:36:14;;;;;;;22.23;12.13;;;;;;;;;;5311638;27;20035;-79
2022/06/13 05:38:47;;;;;;;24.70;12.45;;;;;;;;;;5303907;27;20108;-79
2022/06/13 05:41:18;;;;;;;20.52;10.73;;;;;;;;;;5315873;27;20024;-79
2022/06/13 05:43:50;;;;;;;22.50;10.35;;;;;;;;;;5308622;27;20117;-79
2022/06/13 05:46:29;;;;;;;23.75;10.30;;;;;;;;;;5315167;27;20121;-79
2022/06/13 05:49:00;;;;;;;19.00;9.23;;;;;;;;;;5331400;27;20081;-79
2022/06/13 05:51:31;;;;;;;20.33;8.93;;;;;;;;;;5351343;27;20035;-78
2022/06/13 05:54:02;;;;;;;14.77;8.70;;;;;;;;;;5344723;27;20027;-82
2022/06/13 05:56:34;;;;;;;21.93;8.60;;;;;;;;;;5357084;27;20269;-82
2022/06/13 05:59:05;;;;;;;22.17;8.40;;;;;;;;;;5344681;27;20265;-82
2022/06/13 06:01:36;;;;;;;19.90;8.53;;;;;;;;;;5350586;27;20356;-82
2022/06/13 06:04:07;;;;;;;18.08;7.88;;;;;;;;;;5333861;27;20270;-82
2022/06/13 06:06:39;;;;;;;21.07;8.87;;;;;;;;;;5330625;27;20049;-82
2022/06/13 06:09:10;;;;;;;18.00;8.43;;;;;;;;;;5349591;27;20311;-82
2022/06/13 06:11:42;;;;;;;18.40;7.95;;;;;;;;;;5349976;27;20437;-82
2022/06/13 06:14:13;;;;;;;20.02;8.68;;;;;;;;;;5332483;27;20032;-81
2022/06/13 06:16:44;;;;;;;21.75;8.93;;;;;;;;;;5327779;28;20357;-82
2022/06/13 06:19:16;;;;;;;20.53;9.20;;;;;;;;;;5327719;28;20036;-82
2022/06/13 06:21:47;;;;;;;15.23;6.73;;;;;;;;;;5327658;28;20258;-82
2022/06/13 06:24:18;;;;;;;17.73;7.00;;;;;;;;;;5328043;28;20039;-82
2022/06/13 06:26:49;;;;;;;18.30;6.67;;;;;;;;;;5304214;28;20928;-82
2022/06/13 06:29:20;;;;;;;20.77;6.60;;;;;;;;;;5315640;28;20377;-82
2022/06/13 06:31:52;;;;;;;11.57;5.77;;;;;;;;;;5314979;28;20806;-82
2022/06/13 06:34:23;;;;;;;14.98;5.18;;;;;;;;;;5288317;28;20302;-82
2022/06/13 06:36:54;;;;;;;10.87;4.50;;;;;;;;;;5288236;28;20080;-81
2022/06/13 06:39:25;;;;;;;14.33;5.00;;;;;;;;;;5306591;28;20028;-82
2022/06/13 06:41:56;;;;;;;11.87;3.47;;;;;;;;;;5305714;28;20552;-82
2022/06/13 06:44:27;;;;;;;10.03;3.40;;;;;;;;;;5305600;27;20279;-82
2022/06/13 06:46:59;;;;;;;13.03;3.80;;;;;;;;;;5306384;28;20021;-82
2022/06/13 06:49:34;;;;;;;14.67;3.57;;;;;;;;;;5287737;28;20025;-82
2022/06/13 06:52:05;;;;;;;12.75;3.60;;;;;;;;;;5305850;28;20236;-82
2022/06/13 07:00:19;;;;;;;11.70;3.50;;;;;;;;;;5326265;28;20420;-82
2022/06/13 07:02:50;;;;;;;10.13;2.97;;;;;;;;;;5326841;27;20321;-82
2022/06/13 07:05:21;;;;;;;9.65;2.83;;;;;;;;;;5342680;27;20031;-82
2022/06/13 07:07:52;;;;;;;6.97;2.07;;;;;;;;;;5342859;27;20020;-82
2022/06/13 07:10:23;;;;;;;7.65;2.45;;;;;;;;;;5307194;28;20064;-82
2022/06/13 07:12:54;;;;;;;7.63;2.23;;;;;;;;;;5306054;28;20009;-82
2022/06/13 07:15:26;;;;;;;9.30;2.40;;;;;;;;;;5304594;28;20047;-83
2022/06/13 07:17:57;;;;;;;10.88;2.55;;;;;;;;;;5305560;28;20100;-83
2022/06/13 07:20:28;;;;;;;8.30;2.10;;;;;;;;;;5314107;27;20045;-83
2022/06/13 07:23:00;;;;;;;7.53;2.47;;;;;;;;;;5326813;28;20034;-83
2022/06/13 07:25:31;;;;;;;6.85;2.20;;;;;;;;;;5305449;28;20036;-83
2022/06/13 07:28:02;;;;;;;10.68;2.72;;;;;;;;;;5287266;28;20029;-83
2022/06/13 07:30:34;;;;;;;7.88;2.55;;;;;;;;;;5304582;28;20453;-83
2022/06/13 07:33:05;;;;;;;7.10;2.47;;;;;;;;;;5305105;28;20053;-83
2022/06/13 07:35:37;;;;;;;7.75;2.55;;;;;;;;;;5286824;28;20290;-83
2022/06/13 07:38:18;;;;;;;8.02;2.63;;;;;;;;;;5287626;28;20476;-83
2022/06/13 07:40:51;;;;;;;6.43;1.95;;;;;;;;;;5304966;28;20086;-83
2022/06/13 07:43:33;;;;;;;8.13;2.17;;;;;;;;;;5307059;28;20021;-83
2022/06/13 07:46:05;;;;;;;7.22;1.80;;;;;;;;;;5304268;28;20058;-83
2022/06/13 07:48:36;;;;;;;6.97;2.10;;;;;;;;;;5305354;28;20013;-83
2022/06/13 07:51:09;;;;;;;5.03;1.92;;;;;;;;;;5305726;28;20086;-83
2022/06/13 07:53:40;;;;;;;12.32;2.60;;;;;;;;;;5295903;28;20131;-83
2022/06/13 07:56:15;;;;;;;8.73;2.93;;;;;;;;;;5294619;28;20395;-83
2022/06/13 07:58:46;;;;;;;;;;;;;;;;;;5325794;28;20028;-81
2022/06/13 08:01:18;;;;;;;6.05;2.50;;;;;;;;;;5326033;28;19977;-80
2022/06/13 08:03:50;;;;;;;8.80;2.60;;;;;;;;;;5325929;28;20024;-81
2022/06/13 08:06:21;;;;;;;6.57;2.40;;;;;;;;;;5325918;28;20043;-81
2022/06/13 08:08:53;;;;;;;5.30;1.95;;;;;;;;;;5324765;28;20016;-81
2022/06/13 08:11:30;;;;;;;6.07;2.13;;;;;;;;;;5325210;28;20032;-81
2022/06/13 08:14:01;;;;;;;6.03;1.98;;;;;;;;;;5324347;27;20309;-81
2022/06/13 08:16:34;;;;;;;9.45;3.10;;;;;;;;;;5307864;28;20145;-82
2022/06/13 08:19:05;;;;;;;9.25;2.55;;;;;;;;;;5325292;28;20128;-81
2022/06/13 08:21:37;;;;;;;9.70;2.75;;;;;;;;;;5323940;28;20122;-81
2022/06/13 08:24:08;;;;;;;11.25;2.65;;;;;;;;;;5325416;28;20095;-81
2022/06/13 08:26:39;;;;;;;9.48;2.10;;;;;;;;;;5325823;28;20027;-81
2022/06/13 08:29:10;;;;;;;4.73;2.20;;;;;;;;;;5323828;28;20416;-81
2022/06/13 08:31:42;;;;;;;7.90;2.20;;;;;;;;;;5306938;28;20043;-82
2022/06/13 08:34:13;;;;;;;8.02;2.92;;;;;;;;;;5325435;28;20841;-81
2022/06/13 08:36:45;;;;;;;7.27;2.20;;;;;;;;;;5325978;28;20058;-82
2022/06/13 08:39:16;;;;;;;6.10;1.73;;;;;;;;;;5325480;28;20028;-81
2022/06/13 08:42:02;;;;;;;9.63;2.40;;;;;;;;;;5325627;28;20020;-81
2022/06/13 08:44:36;;;;;;;7.18;1.73;;;;;;;;;;5303597;28;20032;-81
2022/06/13 08:47:10;;;;;;;7.75;1.73;;;;;;;;;;5304574;28;20024;-81
2022/06/13 08:49:42;;;;;;;10.82;2.00;;;;;;;;;;5303894;28;20108;-82
2022/06/13 08:52:13;;;;;;;7.18;1.83;;;;;;;;;;5304688;28;20107;-82
2022/06/13 08:54:51;;;;;;;7.00;1.90;;;;;;;;;;5304026;28;20159;-82
2022/06/13 08:57:25;;;;;;;10.32;2.20;;;;;;;;;;5321081;28;20065;-82
2022/06/13 09:00:03;;;;;;;9.07;2.42;;;;;;;;;;5306417;28;20035;-82
2022/06/13 09:02:43;;;;;;;11.90;2.20;;;;;;;;;;5306794;28;20028;-83
2022/06/13 09:05:27;;;;;;;7.05;1.73;;;;;;;;;;5325573;28;20046;-82
2022/06/13 09:07:59;;;;;;;6.43;1.73;;;;;;;;;;5325573;28;20044;-82
2022/06/13 09:11:03;;;;;;;4.07;1.30;;;;;;;;;;5341389;27;20080;-83
2022/06/13 09:13:37;;;;;;;13.88;2.50;;;;;;;;;;5299545;28;20419;-82
2022/06/13 09:16:13;;;;;;;7.57;1.90;;;;;;;;;;5323603;28;20070;-82
2022/06/13 09:18:52;;;;;;;6.40;1.20;;;;;;;;;;5324921;28;20076;-82
2022/06/13 09:21:39;;;;;;;5.13;1.42;;;;;;;;;;5309260;28;20059;-81
2022/06/13 09:24:19;;;;;;;5.32;1.10;;;;;;;;;;5308109;28;20414;-82
2022/06/13 09:26:53;;;;;;;5.65;1.27;;;;;;;;;;5340446;27;20149;-81
2022/06/13 09:29:24;;;;;;;3.80;1.80;;;;;;;;;;5315256;28;20024;-82
2022/06/13 09:32:04;;;;;;;12.67;3.43;;;;;;;;;;5305812;28;20358;-82
2022/06/13 09:34:39;;;;;;;29.75;4.30;;;;;;;;;;5307917;28;20048;-82
2022/06/13 09:37:11;;;;;;;17.40;2.90;;;;;;;;;;5304900;28;20494;-82
2022/06/13 09:39:43;;;;;;;27.30;4.93;;;;;;;;;;5285690;28;20542;-82
2022/06/13 09:42:40;;;;;;;7.80;2.07;;;;;;;;;;5285890;28;20056;-82
2022/06/13 09:45:11;;;;;;;12.35;2.08;;;;;;;;;;5303117;28;20032;-82
2022/06/13 09:47:51;;;;;;;8.98;2.85;;;;;;;;;;5303813;28;20150;-82
2022/06/13 09:50:43;;;;;;;13.35;2.47;;;;;;;;;;5318953;28;20063;-82
2022/06/13 09:53:28;;;;;;;7.15;1.67;;;;;;;;;;5303733;28;20056;-82
2022/06/13 09:56:08;;;;;;;7.75;1.92;;;;;;;;;;5284794;28;20033;-81
2022/06/13 09:58:58;;;;;;;5.10;1.35;;;;;;;;;;5284398;28;20098;-82
2022/06/13 10:01:34;;;;;;;7.00;2.85;;;;;;;;;;5318977;28;20507;-82
2022/06/13 10:04:11;;;;;;;6.03;2.10;;;;;;;;;;5319508;28;20472;-82
2022/06/13 10:06:45;;;;;;;4.40;1.58;;;;;;;;;;5311393;28;20024;-82
2022/06/13 10:09:17;;;;;;;4.55;1.05;;;;;;;;;;5331522;27;20028;-82
2022/06/13 10:11:54;;;;;;;4.83;1.30;;;;;;;;;;5324342;28;20024;-82
2022/06/13 10:14:34;;;;;;;4.80;1.88;;;;;;;;;;5323876;28;20050;-82
2022/06/13 10:17:17;;;;;;;6.93;1.90;;;;;;;;;;5324506;28;20946;-82
2022/06/13 10:20:03;;;;;;;5.78;1.92;;;;;;;;;;5324434;28;20086;-82
2022/06/13 10:22:53;;;;;;;6.82;2.97;;;;;;;;;;5322708;28;20054;-80
2022/06/13 10:25:34;;;;;;;7.05;4.30;;;;;;;;;;5318473;28;20036;-80
2022/06/13 10:28:13;;;;;;;8.88;4.30;;;;;;;;;;5340094;27;20024;-81
2022/06/13 10:31:03;;;;;;;4.60;2.20;;;;;;;;;;5324124;28;20021;-81
2022/06/13 10:33:40;;;;;;;3.75;2.05;;;;;;;;;;5324363;28;20115;-81
2022/06/13 10:36:12;;;;;;;5.55;1.30;;;;;;;;;;5325707;27;20050;-81
2022/06/13 10:38:52;;;;;;;4.88;1.80;;;;;;;;;;5344718;27;20028;-81
2022/06/13 10:41:25;;;;;;;4.45;1.73;;;;;;;;;;5332030;28;20028;-81
2022/06/13 10:43:57;;;;;;;5.15;1.52;;;;;;;;;;5348844;27;20024;-81
2022/06/13 10:46:29;;;;;;;2.67;0.90;;;;;;;;;;5355101;27;20026;-80
2022/06/13 10:49:00;;;;;;;7.85;1.27;;;;;;;;;;5356629;27;20028;-81
2022/06/13 10:51:31;;;;;;;4.17;1.10;;;;;;;;;;5337766;27;20043;-81
2022/06/13 10:54:07;;;;;;;6.20;1.57;;;;;;;;;;5333746;27;20496;-81
2022/06/13 10:56:41;;;;;;;4.75;1.23;;;;;;;;;;5351983;27;20020;-82
2022/06/13 10:59:25;;;;;;;4.80;2.60;;;;;;;;;;5316960;28;20078;-82
2022/06/13 11:02:00;;;;;;;7.43;2.17;;;;;;;;;;5331633;28;20028;-82
2022/06/13 11:04:32;;;;;;;6.13;2.00;;;;;;;;;;5337085;28;20039;-81
2022/06/13 11:07:11;;;;;;;4.28;1.50;;;;;;;;;;5335096;28;20032;-82
2022/06/13 11:09:47;;;;;;;3.78;1.48;;;;;;;;;;5332472;28;20033;-81
2022/06/13 11:12:18;;;;;;;;;;;;;;;;;;5334712;28;20044;-82
2022/06/13 11:23:36;;;;;;;3.92;0.90;;;;;;;;;;5310404;28;20040;-82
2022/06/13 11:27:39;;;;;;;2.20;0.70;;;;;;;;;;5300562;28;20040;-82
2022/06/13 11:28:58;;;;;;;3.75;0.80;;;;;;;;;;5306499;28;20024;-82
2022/06/13 11:31:30;;;;;;;3.35;0.90;;;;;;;;;;5316524;28;20039;-81
2022/06/13 11:34:16;;;;;;;5.63;0.90;;;;;;;;;;5344832;27;20450;-82
2022/06/13 11:36:59;;;;;;;4.28;0.80;;;;;;;;;;5329514;28;20361;-82
2022/06/13 11:39:31;;;;;;;6.15;1.13;;;;;;;;;;5300266;28;20043;-82
2022/06/13 11:42:03;;;;;;;2.47;0.82;;;;;;;;;;5340570;27;20028;-82
2022/06/13 11:44:40;;;;;;;11.52;1.20;;;;;;;;;;5327241;28;20062;-82
2022/06/13 11:47:12;;;;;;;11.63;1.60;;;;;;;;;;5326056;28;20146;-82
2022/06/13 11:49:45;;;;;;;4.60;0.88;;;;;;;;;;5310416;28;20024;-82
2022/06/13 11:55:18;;;;;;;23.80;2.30;;;;;;;;;;5305416;28;20393;-82
2022/06/13 11:57:53;;;;;;;4.82;1.05;;;;;;;;;;5305333;28;20025;-82
2022/06/13 12:00:24;;;;;;;;;;;;;;;;;;5304312;28;20040;-82
2022/06/13 12:03:07;;;;;;;6.07;0.75;;;;;;;;;;5326460;28;19912;-82
2022/06/13 12:05:39;;;;;;;5.60;1.00;;;;;;;;;;5326205;28;20039;-82
2022/06/13 12:08:13;;;;;;;6.60;0.93;;;;;;;;;;5323114;28;20032;-82
2022/06/13 12:10:46;;;;;;;;;;;;;;;;;;5364498;27;20040;-82
2022/06/13 12:13:20;;;;;;;10.45;1.77;;;;;;;;;;5332963;27;19919;-82
2022/06/13 12:15:53;;;;;;;8.32;1.33;;;;;;;;;;5351061;27;20039;-81
2022/06/13 12:18:39;;;;;;;4.63;1.20;;;;;;;;;;5344383;27;20044;-82
2022/06/13 12:21:21;;;;;;;12.75;1.83;;;;;;;;;;5331378;28;20129;-82
2022/06/13 12:24:12;;;;;;;2.95;1.02;;;;;;;;;;5307939;28;20059;-82
2022/06/13 12:27:03;;;;;;;7.20;1.30;;;;;;;;;;5311110;28;20016;-82
2022/06/13 12:29:47;;;;;;;9.35;1.02;;;;;;;;;;5299309;28;20115;-82
2022/06/13 12:32:21;;;;;;;5.10;0.85;;;;;;;;;;5305117;28;20020;-82
2022/06/13 12:34:59;;;;;;;7.63;1.05;;;;;;;;;;5304693;28;20484;-82
2022/06/13 12:37:34;;;;;;;4.93;0.90;;;;;;;;;;5305263;28;20476;-83
2022/06/13 12:40:24;;;;;;;4.10;0.93;;;;;;;;;;5308942;28;20078;-82
2022/06/13 12:43:04;;;;;;;5.43;1.30;;;;;;;;;;5311847;28;20024;-82
2022/06/13 12:45:43;;;;;;;6.80;1.20;;;;;;;;;;5327853;28;20043;-82
2022/06/13 12:48:28;;;;;;;7.07;1.30;;;;;;;;;;5308006;28;20115;-82
2022/06/13 12:51:03;;;;;;;7.35;1.55;;;;;;;;;;5307119;28;20035;-82
2022/06/13 12:53:41;;;;;;;5.25;1.40;;;;;;;;;;5325812;28;20051;-82
2022/06/13 12:56:28;;;;;;;7.05;1.20;;;;;;;;;;5324383;28;20024;-82
2022/06/13 12:59:18;;;;;;;5.97;1.35;;;;;;;;;;5303312;28;20028;-83
2022/06/13 13:01:58;;;;;;;6.15;1.35;;;;;;;;;;5304362;28;20383;-82
2022/06/13 13:04:45;;;;;;;6.97;2.17;;;;;;;;;;5304329;28;20032;-82
2022/06/13 13:07:34;;;;;;;3.38;1.08;;;;;;;;;;5304905;28;20056;-81
2022/06/13 13:10:24;;;;;;;7.78;1.17;;;;;;;;;;5308509;28;20033;-82
2022/06/13 13:13:12;;;;;;;17.52;2.08;;;;;;;;;;5308467;28;20024;-81
2022/06/13 13:15:43;;;;;;;6.25;1.85;;;;;;;;;;5328697;28;20012;-81
2022/06/13 13:18:30;;;;;;;5.07;1.10;;;;;;;;;;5329445;28;20034;-82
2022/06/13 13:21:09;;;;;;;3.95;1.20;;;;;;;;;;5340709;27;20963;-82
2022/06/13 13:23:47;;;;;;;6.10;1.33;;;;;;;;;;5325085;28;20697;-82
2022/06/13 13:26:37;;;;;;;3.53;1.00;;;;;;;;;;5324467;28;20016;-82
2022/06/13 13:29:08;;;;;;;5.55;1.20;;;;;;;;;;5303449;28;20032;-83
2022/06/13 13:31:58;;;;;;;8.05;1.88;;;;;;;;;;5319569;28;20032;-82
2022/06/13 13:34:29;;;;;;;5.60;1.80;;;;;;;;;;5318346;28;20056;-82
2022/06/13 13:37:04;;;;;;;7.55;1.30;;;;;;;;;;5319537;28;20378;-82
2022/06/13 13:39:40;;;;;;;8.70;1.60;;;;;;;;;;5303248;28;20032;-82
2022/06/13 13:42:21;;;;;;;4.60;1.27;;;;;;;;;;5309395;28;20801;-82
2022/06/13 13:44:58;;;;;;;3.17;0.98;;;;;;;;;;5304698;28;20527;-82
2022/06/13 13:47:34;;;;;;;3.60;1.05;;;;;;;;;;5340307;27;20031;-82
2022/06/13 13:50:08;;;;;;;5.05;1.17;;;;;;;;;;5324458;28;20047;-82
2022/06/13 13:52:41;;;;;;;10.25;1.65;;;;;;;;;;5324255;28;20028;-82
2022/06/13 13:55:26;;;;;;;4.30;1.20;;;;;;;;;;5323917;27;20089;-82
2022/06/13 13:58:03;;;;;;;21.02;1.85;;;;;;;;;;5315160;28;20032;-82
2022/06/13 14:00:43;;;;;;;7.53;1.33;;;;;;;;;;5302308;28;20515;-82
2022/06/13 14:03:37;;;;;;;10.60;2.65;;;;;;;;;;5284749;28;20120;-82
2022/06/13 14:06:12;;;;;;;5.00;1.83;;;;;;;;;;5303195;28;20033;-82
2022/06/13 14:08:45;;;;;;;5.63;1.35;;;;;;;;;;5318274;28;20020;-82
2022/06/13 14:11:17;;;;;;;3.40;0.98;;;;;;;;;;5324910;27;20114;-82
2022/06/13 14:13:58;;;;;;;6.23;1.20;;;;;;;;;;5326041;28;20028;-82
2022/06/13 14:16:37;;;;;;;6.43;1.35;;;;;;;;;;5328082;28;20278;-82
2022/06/13 14:19:11;;;;;;;2.83;1.25;;;;;;;;;;5308569;28;20123;-82
2022/06/13 14:21:42;;;;;;;7.07;1.70;;;;;;;;;;5327849;28;20032;-82
2022/06/13 14:24:15;;;;;;;5.90;1.67;;;;;;;;;;5343264;27;20028;-82
2022/06/13 14:27:00;;;;;;;3.50;1.30;;;;;;;;;;5325308;28;20089;-82
2022/06/13 14:29:35;;;;;;;5.80;1.88;;;;;;;;;;5295569;28;20359;-83
2022/06/13 14:32:08;;;;;;;6.82;1.15;;;;;;;;;;5327367;28;20034;-82
2022/06/13 14:37:30;;;;;;;10.23;2.00;;;;;;;;;;5326465;28;20028;-83
2022/06/13 14:40:10;;;;;;;6.45;1.50;;;;;;;;;;5327608;28;20110;-83
2022/06/13 14:42:51;;;;;;;5.50;1.52;;;;;;;;;;5322691;27;20395;-82
2022/06/13 14:45:35;;;;;;;6.72;2.10;;;;;;;;;;5326851;28;20024;-83
2022/06/13 14:48:12;;;;;;;8.15;2.67;;;;;;;;;;5327386;28;20073;-82
2022/06/13 14:50:46;;;;;;;5.07;1.67;;;;;;;;;;5327547;28;20030;-82
2022/06/13 14:53:46;;;;;;;4.10;1.17;;;;;;;;;;5328009;28;20340;-82
2022/06/13 14:56:27;;;;;;;5.95;1.65;;;;;;;;;;5314011;28;20123;-82
2022/06/13 14:59:02;;;;;;;5.30;2.17;;;;;;;;;;5305121;28;20020;-82
2022/06/13 15:01:35;;;;;;;5.93;1.98;;;;;;;;;;5306406;28;20357;-82
2022/06/13 15:04:08;;;;;;;6.53;1.92;;;;;;;;;;5306903;28;20465;-81
2022/06/13 15:06:39;;;;;;;5.28;1.73;;;;;;;;;;5338840;28;20572;-82
2022/06/13 15:09:16;;;;;;;5.47;1.50;;;;;;;;;;5328781;28;20039;-81
2022/06/13 15:11:49;;;;;;;5.45;1.58;;;;;;;;;;5328795;28;20033;-81
2022/06/13 15:14:23;;;;;;;3.88;1.20;;;;;;;;;;5329426;28;20105;-81
2022/06/13 15:16:58;;;;;;;6.25;1.10;;;;;;;;;;5313570;28;20020;-82
2022/06/13 15:19:35;;;;;;;4.53;1.23;;;;;;;;;;5308927;28;20028;-82
2022/06/13 15:22:11;;;;;;;5.20;1.17;;;;;;;;;;5308438;28;20384;-82
2022/06/13 15:24:42;;;;;;;;;;;;;;;;;;5316949;28;20099;-82
2022/06/13 15:27:13;;;;;;;7.03;1.80;;;;;;;;;;5343866;27;20018;-82
2022/06/13 15:30:04;;;;;;;5.72;1.40;;;;;;;;;;5327236;28;20028;-82
2022/06/13 15:32:39;;;;;;;6.80;1.55;;;;;;;;;;5342589;27;20108;-82
2022/06/13 15:35:18;;;;;;;6.32;1.42;;;;;;;;;;5327224;28;20420;-82
2022/06/13 15:37:50;;;;;;;6.20;1.30;;;;;;;;;;5327250;28;20020;-83
2022/06/13 15:40:24;;;;;;;2.65;1.00;;;;;;;;;;5333493;27;20043;-82
2022/06/13 15:42:55;;;;;;;5.88;1.17;;;;;;;;;;5318222;27;20032;-82
2022/06/13 15:45:29;;;;;;;5.05;1.00;;;;;;;;;;5320099;27;20086;-82
2022/06/13 15:48:01;;;;;;;3.38;1.10;;;;;;;;;;5325885;27;20101;-82
2022/06/13 15:50:33;;;;;;;4.95;1.20;;;;;;;;;;5340431;27;20468;-82
2022/06/13 15:53:04;;;;;;;5.70;1.63;;;;;;;;;;5327024;28;20028;-83
2022/06/13 15:55:43;;;;;;;9.13;1.83;;;;;;;;;;5326434;28;20081;-83
2022/06/13 15:58:26;;;;;;;5.95;1.63;;;;;;;;;;5326553;27;20263;-83